sensor_id;sensor_type;location;lat;lon;timestamp;temperature;humidity
33831;DHT22;20137;48.834;8.732;2023-08-07T00:00:42;10.50;99.90
33831;DHT22;20137;48.834;8.732;2023-08-07T00:03:08;10.50;99.90
33831;DHT22;20137;48.834;8.732;2023-08-07T00:05:34;10.50;99.90
33831;DHT22;20137;48.834;8.732;2023-08-07T00:07:59;10.40;99.90
33831;DHT22;20137;48.834;8.732;2023-08-07T00:10:26;10.40;99.90
33831;DHT22;20137;48.834;8.732;2023-08-07T00:12:51;10.40;99.90
33831;DHT22;20137;48.834;8.732;2023-08-07T00:15:17;10.40;99.90
33831;DHT22;20137;48.834;8.732;2023-08-07T00:17:43;10.40;99.90
33831;DHT22;20137;48.834;8.732;2023-08-07T00:20:08;10.40;99.90
33831;DHT22;20137;48.834;8.732;2023-08-07T00:22:34;10.50;99.90
33831;DHT22;20137;48.834;8.732;2023-08-07T00:25:00;10.40;99.90
33831;DHT22;20137;48.834;8.732;2023-08-07T00:27:26;10.40;99.90
33831;DHT22;20137;48.834;8.732;2023-08-07T00:29:51;10.60;99.90
33831;DHT22;20137;48.834;8.732;2023-08-07T00:32:17;10.50;99.90
33831;DHT22;20137;48.834;8.732;2023-08-07T00:34:43;10.50;99.90
33831;DHT22;20137;48.834;8.732;2023-08-07T00:37:08;10.40;99.90
33831;DHT22;20137;48.834;8.732;2023-08-07T00:39:34;10.50;99.90
33831;DHT22;20137;48.834;8.732;2023-08-07T00:41:59;10.50;99.90
33831;DHT22;20137;48.834;8.732;2023-08-07T00:44:25;10.50;99.90
33831;DHT22;20137;48.834;8.732;2023-08-07T00:46:51;10.50;99.90
33831;DHT22;20137;48.834;8.732;2023-08-07T00:49:17;10.60;99.90
33831;DHT22;20137;48.834;8.732;2023-08-07T00:51:44;10.50;99.90
33831;DHT22;20137;48.834;8.732;2023-08-07T00:54:15;10.50;99.90
33831;DHT22;20137;48.834;8.732;2023-08-07T00:56:40;10.50;99.90
33831;DHT22;20137;48.834;8.732;2023-08-07T00:59:06;10.50;99.90
33831;DHT22;20137;48.834;8.732;2023-08-07T01:01:32;10.50;99.90
33831;DHT22;20137;48.834;8.732;2023-08-07T01:03:58;10.60;99.90
33831;DHT22;20137;48.834;8.732;2023-08-07T01:06:24;10.60;99.90
33831;DHT22;20137;48.834;8.732;2023-08-07T01:08:50;10.60;99.90
33831;DHT22;20137;48.834;8.732;2023-08-07T01:11:36;10.60;99.90
33831;DHT22;20137;48.834;8.732;2023-08-07T01:14:19;10.50;99.90
33831;DHT22;20137;48.834;8.732;2023-08-07T01:17:02;10.50;99.90
33831;DHT22;20137;48.834;8.732;2023-08-07T01:19:30;10.50;99.90
33831;DHT22;20137;48.834;8.732;2023-08-07T01:24:36;10.50;99.90
33831;DHT22;20137;48.834;8.732;2023-08-07T01:32:16;10.50;99.90
33831;DHT22;20137;48.834;8.732;2023-08-07T01:34:44;10.50;99.90
33831;DHT22;20137;48.834;8.732;2023-08-07T01:37:10;10.50;99.90
33831;DHT22;20137;48.834;8.732;2023-08-07T01:39:38;10.50;99.90
33831;DHT22;20137;48.834;8.732;2023-08-07T01:42:05;10.40;99.90
33831;DHT22;20137;48.834;8.732;2023-08-07T01:44:31;10.40;99.90
33831;DHT22;20137;48.834;8.732;2023-08-07T01:46:57;10.40;99.90
33831;DHT22;20137;48.834;8.732;2023-08-07T01:49:22;10.50;99.90
33831;DHT22;20137;48.834;8.732;2023-08-07T01:51:48;10.50;99.90
33831;DHT22;20137;48.834;8.732;2023-08-07T01:54:14;10.40;99.90
33831;DHT22;20137;48.834;8.732;2023-08-07T01:56:40;10.50;99.90
33831;DHT22;20137;48.834;8.732;2023-08-07T01:59:05;10.50;99.90
33831;DHT22;20137;48.834;8.732;2023-08-07T02:01:31;10.50;99.90
33831;DHT22;20137;48.834;8.732;2023-08-07T02:03:57;10.50;99.90
33831;DHT22;20137;48.834;8.732;2023-08-07T02:06:22;10.50;99.90
33831;DHT22;20137;48.834;8.732;2023-08-07T02:08:48;10.40;99.90
33831;DHT22;20137;48.834;8.732;2023-08-07T02:11:13;10.40;99.90
33831;DHT22;20137;48.834;8.732;2023-08-07T02:13:39;10.30;99.90
33831;DHT22;20137;48.834;8.732;2023-08-07T02:16:05;10.40;99.90
33831;DHT22;20137;48.834;8.732;2023-08-07T02:18:30;10.30;99.90
33831;DHT22;20137;48.834;8.732;2023-08-07T02:20:56;10.30;99.90
33831;DHT22;20137;48.834;8.732;2023-08-07T02:23:21;10.30;99.90
33831;DHT22;20137;48.834;8.732;2023-08-07T02:25:48;10.30;99.90
33831;DHT22;20137;48.834;8.732;2023-08-07T02:28:14;10.20;99.90
33831;DHT22;20137;48.834;8.732;2023-08-07T02:30:39;10.30;99.90
33831;DHT22;20137;48.834;8.732;2023-08-07T02:33:05;10.30;99.90
33831;DHT22;20137;48.834;8.732;2023-08-07T02:35:31;10.20;99.90
33831;DHT22;20137;48.834;8.732;2023-08-07T02:37:56;10.20;99.90
33831;DHT22;20137;48.834;8.732;2023-08-07T02:40:22;10.20;99.90
33831;DHT22;20137;48.834;8.732;2023-08-07T02:42:48;10.20;99.90
33831;DHT22;20137;48.834;8.732;2023-08-07T02:45:13;10.10;99.90
33831;DHT22;20137;48.834;8.732;2023-08-07T02:47:39;10.10;99.90
33831;DHT22;20137;48.834;8.732;2023-08-07T02:50:05;10.20;99.90
33831;DHT22;20137;48.834;8.732;2023-08-07T02:52:31;10.10;99.90
33831;DHT22;20137;48.834;8.732;2023-08-07T02:54:56;10.10;99.90
33831;DHT22;20137;48.834;8.732;2023-08-07T02:57:22;10.10;99.90
33831;DHT22;20137;48.834;8.732;2023-08-07T02:59:47;10.00;99.90
33831;DHT22;20137;48.834;8.732;2023-08-07T03:02:13;10.10;99.90
33831;DHT22;20137;48.834;8.732;2023-08-07T03:04:39;10.10;99.90
33831;DHT22;20137;48.834;8.732;2023-08-07T03:07:04;10.10;99.90
33831;DHT22;20137;48.834;8.732;2023-08-07T03:09:30;10.10;99.90
33831;DHT22;20137;48.834;8.732;2023-08-07T03:11:55;10.00;99.90
33831;DHT22;20137;48.834;8.732;2023-08-07T03:14:21;10.10;99.90
33831;DHT22;20137;48.834;8.732;2023-08-07T03:16:47;10.10;99.90
33831;DHT22;20137;48.834;8.732;2023-08-07T03:19:12;10.10;99.90
33831;DHT22;20137;48.834;8.732;2023-08-07T03:21:38;10.10;99.90
33831;DHT22;20137;48.834;8.732;2023-08-07T03:24:04;10.20;99.90
33831;DHT22;20137;48.834;8.732;2023-08-07T03:26:30;10.10;99.90
33831;DHT22;20137;48.834;8.732;2023-08-07T03:28:55;10.20;99.90
33831;DHT22;20137;48.834;8.732;2023-08-07T03:31:21;10.20;99.90
33831;DHT22;20137;48.834;8.732;2023-08-07T03:33:46;10.20;99.90
33831;DHT22;20137;48.834;8.732;2023-08-07T03:36:12;10.20;99.90
33831;DHT22;20137;48.834;8.732;2023-08-07T03:38:38;10.10;99.90
33831;DHT22;20137;48.834;8.732;2023-08-07T03:41:04;10.20;99.90
33831;DHT22;20137;48.834;8.732;2023-08-07T03:43:32;10.20;99.90
33831;DHT22;20137;48.834;8.732;2023-08-07T03:45:58;10.20;99.90
33831;DHT22;20137;48.834;8.732;2023-08-07T03:48:24;10.20;99.90
33831;DHT22;20137;48.834;8.732;2023-08-07T03:50:49;10.20;99.90
33831;DHT22;20137;48.834;8.732;2023-08-07T03:53:15;10.20;99.90
33831;DHT22;20137;48.834;8.732;2023-08-07T03:55:40;10.20;99.90
33831;DHT22;20137;48.834;8.732;2023-08-07T03:58:07;10.20;99.90
33831;DHT22;20137;48.834;8.732;2023-08-07T04:00:33;10.10;99.90
33831;DHT22;20137;48.834;8.732;2023-08-07T04:02:58;10.30;99.90
33831;DHT22;20137;48.834;8.732;2023-08-07T04:05:24;10.10;99.90
33831;DHT22;20137;48.834;8.732;2023-08-07T04:07:50;10.10;99.90
33831;DHT22;20137;48.834;8.732;2023-08-07T04:10:15;10.20;99.90
33831;DHT22;20137;48.834;8.732;2023-08-07T04:12:41;10.20;99.90
33831;DHT22;20137;48.834;8.732;2023-08-07T04:15:08;10.20;99.90
33831;DHT22;20137;48.834;8.732;2023-08-07T04:17:35;10.30;99.90
33831;DHT22;20137;48.834;8.732;2023-08-07T04:20:01;10.30;99.90
33831;DHT22;20137;48.834;8.732;2023-08-07T04:22:28;10.40;99.90
33831;DHT22;20137;48.834;8.732;2023-08-07T04:24:54;10.40;99.90
33831;DHT22;20137;48.834;8.732;2023-08-07T04:27:20;10.40;99.90
33831;DHT22;20137;48.834;8.732;2023-08-07T04:29:45;10.40;99.90
33831;DHT22;20137;48.834;8.732;2023-08-07T04:32:11;10.40;99.90
33831;DHT22;20137;48.834;8.732;2023-08-07T04:34:36;10.50;99.90
33831;DHT22;20137;48.834;8.732;2023-08-07T04:37:02;10.60;99.90
33831;DHT22;20137;48.834;8.732;2023-08-07T04:39:28;10.60;99.90
33831;DHT22;20137;48.834;8.732;2023-08-07T04:41:53;10.60;99.90
33831;DHT22;20137;48.834;8.732;2023-08-07T04:44:19;10.60;99.90
33831;DHT22;20137;48.834;8.732;2023-08-07T04:46:45;10.60;99.90
33831;DHT22;20137;48.834;8.732;2023-08-07T04:49:10;10.60;99.90
33831;DHT22;20137;48.834;8.732;2023-08-07T04:51:36;10.60;99.90
33831;DHT22;20137;48.834;8.732;2023-08-07T04:54:01;10.60;99.90
33831;DHT22;20137;48.834;8.732;2023-08-07T04:56:27;10.60;99.90
33831;DHT22;20137;48.834;8.732;2023-08-07T04:58:53;10.70;99.90
33831;DHT22;20137;48.834;8.732;2023-08-07T05:01:18;10.70;99.90
33831;DHT22;20137;48.834;8.732;2023-08-07T05:03:44;10.80;99.90
33831;DHT22;20137;48.834;8.732;2023-08-07T05:06:10;10.80;99.90
33831;DHT22;20137;48.834;8.732;2023-08-07T05:08:35;10.80;99.90
33831;DHT22;20137;48.834;8.732;2023-08-07T05:11:01;10.90;99.90
33831;DHT22;20137;48.834;8.732;2023-08-07T05:13:27;11.00;99.90
33831;DHT22;20137;48.834;8.732;2023-08-07T05:15:52;10.90;99.90
33831;DHT22;20137;48.834;8.732;2023-08-07T05:18:18;10.90;99.90
33831;DHT22;20137;48.834;8.732;2023-08-07T05:20:44;11.00;99.90
33831;DHT22;20137;48.834;8.732;2023-08-07T05:23:10;11.00;99.90
33831;DHT22;20137;48.834;8.732;2023-08-07T05:25:36;11.00;99.90
33831;DHT22;20137;48.834;8.732;2023-08-07T05:28:05;11.10;99.90
33831;DHT22;20137;48.834;8.732;2023-08-07T05:30:30;11.10;99.90
33831;DHT22;20137;48.834;8.732;2023-08-07T05:32:56;11.10;99.90
33831;DHT22;20137;48.834;8.732;2023-08-07T05:35:22;11.10;99.90
33831;DHT22;20137;48.834;8.732;2023-08-07T05:37:48;11.20;99.90
33831;DHT22;20137;48.834;8.732;2023-08-07T05:40:13;11.30;99.90
33831;DHT22;20137;48.834;8.732;2023-08-07T05:42:39;11.20;99.90
33831;DHT22;20137;48.834;8.732;2023-08-07T05:45:06;11.10;99.90
33831;DHT22;20137;48.834;8.732;2023-08-07T05:47:32;11.10;99.90
33831;DHT22;20137;48.834;8.732;2023-08-07T05:49:58;11.20;99.90
33831;DHT22;20137;48.834;8.732;2023-08-07T05:52:23;11.20;99.90
33831;DHT22;20137;48.834;8.732;2023-08-07T05:54:49;11.20;99.90
33831;DHT22;20137;48.834;8.732;2023-08-07T05:57:15;11.20;99.90
33831;DHT22;20137;48.834;8.732;2023-08-07T05:59:40;11.30;99.90
33831;DHT22;20137;48.834;8.732;2023-08-07T06:02:06;11.30;99.90
33831;DHT22;20137;48.834;8.732;2023-08-07T06:04:32;11.40;99.90
33831;DHT22;20137;48.834;8.732;2023-08-07T06:06:58;11.40;99.90
33831;DHT22;20137;48.834;8.732;2023-08-07T06:09:24;11.50;99.90
33831;DHT22;20137;48.834;8.732;2023-08-07T06:11:49;11.50;99.90
33831;DHT22;20137;48.834;8.732;2023-08-07T06:14:15;11.70;99.90
33831;DHT22;20137;48.834;8.732;2023-08-07T06:16:40;11.70;99.90
33831;DHT22;20137;48.834;8.732;2023-08-07T06:19:06;11.70;99.90
33831;DHT22;20137;48.834;8.732;2023-08-07T06:21:32;11.70;99.90
33831;DHT22;20137;48.834;8.732;2023-08-07T06:23:58;11.70;99.90
33831;DHT22;20137;48.834;8.732;2023-08-07T06:26:24;11.70;99.90
33831;DHT22;20137;48.834;8.732;2023-08-07T06:28:49;11.70;99.90
33831;DHT22;20137;48.834;8.732;2023-08-07T06:31:16;11.80;99.90
33831;DHT22;20137;48.834;8.732;2023-08-07T06:33:42;12.00;99.90
33831;DHT22;20137;48.834;8.732;2023-08-07T06:36:08;12.00;99.90
33831;DHT22;20137;48.834;8.732;2023-08-07T06:38:34;12.00;99.90
33831;DHT22;20137;48.834;8.732;2023-08-07T06:41:00;12.00;99.90
33831;DHT22;20137;48.834;8.732;2023-08-07T06:43:25;12.00;99.90
33831;DHT22;20137;48.834;8.732;2023-08-07T06:45:55;12.10;99.90
33831;DHT22;20137;48.834;8.732;2023-08-07T06:48:21;12.10;99.90
33831;DHT22;20137;48.834;8.732;2023-08-07T06:50:50;12.10;99.90
33831;DHT22;20137;48.834;8.732;2023-08-07T06:53:16;12.10;99.90
33831;DHT22;20137;48.834;8.732;2023-08-07T06:55:43;12.20;99.90
33831;DHT22;20137;48.834;8.732;2023-08-07T06:58:09;12.30;99.90
33831;DHT22;20137;48.834;8.732;2023-08-07T07:00:35;12.50;99.90
33831;DHT22;20137;48.834;8.732;2023-08-07T07:03:02;12.40;99.90
33831;DHT22;20137;48.834;8.732;2023-08-07T07:05:27;12.70;99.90
33831;DHT22;20137;48.834;8.732;2023-08-07T07:07:53;13.00;99.90
33831;DHT22;20137;48.834;8.732;2023-08-07T07:10:20;13.10;99.90
33831;DHT22;20137;48.834;8.732;2023-08-07T07:12:46;13.00;99.90
33831;DHT22;20137;48.834;8.732;2023-08-07T07:15:12;13.10;99.90
33831;DHT22;20137;48.834;8.732;2023-08-07T07:17:38;13.10;99.90
33831;DHT22;20137;48.834;8.732;2023-08-07T07:20:04;13.20;99.90
33831;DHT22;20137;48.834;8.732;2023-08-07T07:22:30;13.50;99.90
33831;DHT22;20137;48.834;8.732;2023-08-07T07:24:56;13.40;99.90
33831;DHT22;20137;48.834;8.732;2023-08-07T07:27:21;13.20;99.90
33831;DHT22;20137;48.834;8.732;2023-08-07T07:29:51;13.10;99.90
33831;DHT22;20137;48.834;8.732;2023-08-07T07:32:17;13.30;99.90
33831;DHT22;20137;48.834;8.732;2023-08-07T07:34:43;13.50;99.90
33831;DHT22;20137;48.834;8.732;2023-08-07T07:37:10;13.60;99.90
33831;DHT22;20137;48.834;8.732;2023-08-07T07:39:35;13.30;99.90
33831;DHT22;20137;48.834;8.732;2023-08-07T07:42:01;13.00;99.90
33831;DHT22;20137;48.834;8.732;2023-08-07T07:44:29;13.20;99.90
33831;DHT22;20137;48.834;8.732;2023-08-07T07:46:55;13.40;99.90
33831;DHT22;20137;48.834;8.732;2023-08-07T07:49:21;13.30;99.90
33831;DHT22;20137;48.834;8.732;2023-08-07T07:51:46;13.60;99.90
33831;DHT22;20137;48.834;8.732;2023-08-07T07:54:12;13.50;99.90
33831;DHT22;20137;48.834;8.732;2023-08-07T07:56:38;13.30;99.90
33831;DHT22;20137;48.834;8.732;2023-08-07T07:59:04;13.40;99.90
33831;DHT22;20137;48.834;8.732;2023-08-07T08:01:29;13.30;99.90
33831;DHT22;20137;48.834;8.732;2023-08-07T08:03:55;13.50;99.90
33831;DHT22;20137;48.834;8.732;2023-08-07T08:06:20;13.50;99.90
33831;DHT22;20137;48.834;8.732;2023-08-07T08:08:46;13.60;99.90
33831;DHT22;20137;48.834;8.732;2023-08-07T08:11:12;13.80;99.90
33831;DHT22;20137;48.834;8.732;2023-08-07T08:13:37;14.00;99.90
33831;DHT22;20137;48.834;8.732;2023-08-07T08:16:05;14.20;99.90
33831;DHT22;20137;48.834;8.732;2023-08-07T08:18:30;14.10;99.90
33831;DHT22;20137;48.834;8.732;2023-08-07T08:20:56;14.10;99.90
33831;DHT22;20137;48.834;8.732;2023-08-07T08:23:22;14.10;99.90
33831;DHT22;20137;48.834;8.732;2023-08-07T08:25:48;14.00;99.90
33831;DHT22;20137;48.834;8.732;2023-08-07T08:28:14;13.90;99.90
33831;DHT22;20137;48.834;8.732;2023-08-07T08:30:40;14.00;99.90
33831;DHT22;20137;48.834;8.732;2023-08-07T08:33:05;14.20;99.90
33831;DHT22;20137;48.834;8.732;2023-08-07T08:35:31;14.30;99.90
33831;DHT22;20137;48.834;8.732;2023-08-07T08:37:57;14.50;99.90
33831;DHT22;20137;48.834;8.732;2023-08-07T08:40:24;14.40;99.90
33831;DHT22;20137;48.834;8.732;2023-08-07T08:42:50;14.30;99.90
33831;DHT22;20137;48.834;8.732;2023-08-07T08:45:19;14.30;99.90
33831;DHT22;20137;48.834;8.732;2023-08-07T08:47:46;14.40;99.90
33831;DHT22;20137;48.834;8.732;2023-08-07T08:50:14;14.60;99.90
33831;DHT22;20137;48.834;8.732;2023-08-07T08:52:45;14.70;99.90
33831;DHT22;20137;48.834;8.732;2023-08-07T08:55:12;14.70;99.90
33831;DHT22;20137;48.834;8.732;2023-08-07T08:57:39;14.50;99.90
33831;DHT22;20137;48.834;8.732;2023-08-07T09:00:06;14.50;99.90
33831;DHT22;20137;48.834;8.732;2023-08-07T09:02:50;14.20;99.90
33831;DHT22;20137;48.834;8.732;2023-08-07T09:05:17;13.70;99.90
33831;DHT22;20137;48.834;8.732;2023-08-07T09:07:44;13.70;99.90
33831;DHT22;20137;48.834;8.732;2023-08-07T09:10:12;13.70;99.90
33831;DHT22;20137;48.834;8.732;2023-08-07T09:13:02;13.70;99.90
33831;DHT22;20137;48.834;8.732;2023-08-07T09:15:32;13.80;99.90
33831;DHT22;20137;48.834;8.732;2023-08-07T09:17:58;14.00;99.90
33831;DHT22;20137;48.834;8.732;2023-08-07T09:20:27;14.20;99.90
33831;DHT22;20137;48.834;8.732;2023-08-07T09:22:54;14.20;99.90
33831;DHT22;20137;48.834;8.732;2023-08-07T09:25:32;14.40;99.90
33831;DHT22;20137;48.834;8.732;2023-08-07T09:28:01;14.50;99.90
33831;DHT22;20137;48.834;8.732;2023-08-07T09:30:28;14.30;99.90
33831;DHT22;20137;48.834;8.732;2023-08-07T09:32:57;14.20;99.90
33831;DHT22;20137;48.834;8.732;2023-08-07T09:35:23;14.20;99.90
33831;DHT22;20137;48.834;8.732;2023-08-07T09:37:49;14.30;99.90
33831;DHT22;20137;48.834;8.732;2023-08-07T09:40:15;14.40;99.90
33831;DHT22;20137;48.834;8.732;2023-08-07T09:42:42;14.60;99.90
33831;DHT22;20137;48.834;8.732;2023-08-07T09:45:21;14.40;99.90
33831;DHT22;20137;48.834;8.732;2023-08-07T09:48:03;14.40;99.90
33831;DHT22;20137;48.834;8.732;2023-08-07T09:50:30;14.70;99.90
33831;DHT22;20137;48.834;8.732;2023-08-07T09:52:57;14.30;99.90
33831;DHT22;20137;48.834;8.732;2023-08-07T09:55:26;14.20;99.90
33831;DHT22;20137;48.834;8.732;2023-08-07T09:57:52;14.20;99.90
33831;DHT22;20137;48.834;8.732;2023-08-07T10:00:18;14.30;99.90
33831;DHT22;20137;48.834;8.732;2023-08-07T10:02:48;14.60;99.90
33831;DHT22;20137;48.834;8.732;2023-08-07T10:05:15;15.00;99.90
33831;DHT22;20137;48.834;8.732;2023-08-07T10:07:41;15.10;99.90
33831;DHT22;20137;48.834;8.732;2023-08-07T10:10:08;15.20;99.90
33831;DHT22;20137;48.834;8.732;2023-08-07T10:12:34;15.30;99.90
33831;DHT22;20137;48.834;8.732;2023-08-07T10:15:00;15.70;99.90
33831;DHT22;20137;48.834;8.732;2023-08-07T10:17:26;15.90;99.90
33831;DHT22;20137;48.834;8.732;2023-08-07T10:19:52;15.80;99.90
33831;DHT22;20137;48.834;8.732;2023-08-07T10:22:24;15.40;99.90
33831;DHT22;20137;48.834;8.732;2023-08-07T10:24:53;15.30;99.90
33831;DHT22;20137;48.834;8.732;2023-08-07T10:27:21;15.30;99.90
33831;DHT22;20137;48.834;8.732;2023-08-07T10:29:48;15.50;99.90
33831;DHT22;20137;48.834;8.732;2023-08-07T10:32:17;15.60;99.90
33831;DHT22;20137;48.834;8.732;2023-08-07T10:34:49;15.60;99.90
33831;DHT22;20137;48.834;8.732;2023-08-07T10:37:43;15.60;99.90
33831;DHT22;20137;48.834;8.732;2023-08-07T10:40:11;15.60;99.90
33831;DHT22;20137;48.834;8.732;2023-08-07T10:42:59;15.40;99.90
33831;DHT22;20137;48.834;8.732;2023-08-07T10:45:28;15.60;99.90
33831;DHT22;20137;48.834;8.732;2023-08-07T10:47:58;15.90;99.90
33831;DHT22;20137;48.834;8.732;2023-08-07T10:50:31;15.80;99.90
33831;DHT22;20137;48.834;8.732;2023-08-07T10:53:00;15.80;99.90
33831;DHT22;20137;48.834;8.732;2023-08-07T10:55:25;15.90;99.90
33831;DHT22;20137;48.834;8.732;2023-08-07T10:57:53;16.00;99.90
33831;DHT22;20137;48.834;8.732;2023-08-07T11:02:52;16.10;99.90
33831;DHT22;20137;48.834;8.732;2023-08-07T11:05:18;15.50;99.90
33831;DHT22;20137;48.834;8.732;2023-08-07T11:07:45;15.10;99.90
33831;DHT22;20137;48.834;8.732;2023-08-07T11:10:13;14.80;99.90
33831;DHT22;20137;48.834;8.732;2023-08-07T11:12:42;14.60;99.90
33831;DHT22;20137;48.834;8.732;2023-08-07T11:15:12;14.50;99.90
33831;DHT22;20137;48.834;8.732;2023-08-07T11:17:38;14.30;99.90
33831;DHT22;20137;48.834;8.732;2023-08-07T11:20:07;14.20;99.90
33831;DHT22;20137;48.834;8.732;2023-08-07T11:22:32;14.20;99.90
33831;DHT22;20137;48.834;8.732;2023-08-07T11:24:58;14.20;99.90
33831;DHT22;20137;48.834;8.732;2023-08-07T11:27:24;14.30;99.90
33831;DHT22;20137;48.834;8.732;2023-08-07T11:29:50;14.30;99.90
33831;DHT22;20137;48.834;8.732;2023-08-07T11:32:15;14.50;99.90
33831;DHT22;20137;48.834;8.732;2023-08-07T11:34:48;14.60;99.90
33831;DHT22;20137;48.834;8.732;2023-08-07T11:37:17;14.70;99.90
33831;DHT22;20137;48.834;8.732;2023-08-07T11:39:43;14.70;99.90
33831;DHT22;20137;48.834;8.732;2023-08-07T11:42:09;14.80;99.90
33831;DHT22;20137;48.834;8.732;2023-08-07T11:44:35;14.80;99.90
33831;DHT22;20137;48.834;8.732;2023-08-07T11:47:00;14.70;99.90
33831;DHT22;20137;48.834;8.732;2023-08-07T11:49:26;14.60;99.90
33831;DHT22;20137;48.834;8.732;2023-08-07T11:51:53;14.70;99.90
33831;DHT22;20137;48.834;8.732;2023-08-07T11:54:19;14.80;99.90
33831;DHT22;20137;48.834;8.732;2023-08-07T11:56:45;14.80;99.90
33831;DHT22;20137;48.834;8.732;2023-08-07T11:59:11;14.90;99.90
33831;DHT22;20137;48.834;8.732;2023-08-07T12:01:38;15.00;99.90
33831;DHT22;20137;48.834;8.732;2023-08-07T12:06:31;15.10;99.90
33831;DHT22;20137;48.834;8.732;2023-08-07T12:08:57;15.10;99.90
33831;DHT22;20137;48.834;8.732;2023-08-07T12:11:23;15.10;99.90
33831;DHT22;20137;48.834;8.732;2023-08-07T12:13:49;15.30;99.90
33831;DHT22;20137;48.834;8.732;2023-08-07T12:16:16;15.80;99.90
33831;DHT22;20137;48.834;8.732;2023-08-07T12:18:49;16.00;99.90
33831;DHT22;20137;48.834;8.732;2023-08-07T12:21:17;16.10;99.90
33831;DHT22;20137;48.834;8.732;2023-08-07T12:23:48;15.90;99.90
33831;DHT22;20137;48.834;8.732;2023-08-07T12:26:14;15.90;99.90
33831;DHT22;20137;48.834;8.732;2023-08-07T12:28:40;16.00;99.90
33831;DHT22;20137;48.834;8.732;2023-08-07T12:31:06;16.10;99.90
33831;DHT22;20137;48.834;8.732;2023-08-07T12:33:32;16.10;99.90
33831;DHT22;20137;48.834;8.732;2023-08-07T12:35:59;16.00;99.90
33831;DHT22;20137;48.834;8.732;2023-08-07T12:38:28;15.90;99.90
33831;DHT22;20137;48.834;8.732;2023-08-07T12:40:54;15.80;99.90
33831;DHT22;20137;48.834;8.732;2023-08-07T12:43:20;15.50;99.90
33831;DHT22;20137;48.834;8.732;2023-08-07T12:45:45;15.50;99.90
33831;DHT22;20137;48.834;8.732;2023-08-07T12:48:11;15.50;99.90
33831;DHT22;20137;48.834;8.732;2023-08-07T12:50:37;15.50;99.90
33831;DHT22;20137;48.834;8.732;2023-08-07T12:53:03;15.40;99.90
33831;DHT22;20137;48.834;8.732;2023-08-07T12:55:29;15.50;99.90
33831;DHT22;20137;48.834;8.732;2023-08-07T12:57:55;15.60;99.90
33831;DHT22;20137;48.834;8.732;2023-08-07T13:00:22;15.70;99.90
33831;DHT22;20137;48.834;8.732;2023-08-07T13:02:49;15.90;99.90
33831;DHT22;20137;48.834;8.732;2023-08-07T13:05:15;16.40;99.90
33831;DHT22;20137;48.834;8.732;2023-08-07T13:07:42;17.00;99.90
33831;DHT22;20137;48.834;8.732;2023-08-07T13:10:11;17.00;99.90
33831;DHT22;20137;48.834;8.732;2023-08-07T13:12:38;16.90;99.90
33831;DHT22;20137;48.834;8.732;2023-08-07T13:15:05;16.90;99.90
33831;DHT22;20137;48.834;8.732;2023-08-07T13:17:32;16.80;99.90
33831;DHT22;20137;48.834;8.732;2023-08-07T13:19:59;16.80;99.90
33831;DHT22;20137;48.834;8.732;2023-08-07T13:22:25;17.10;99.90
33831;DHT22;20137;48.834;8.732;2023-08-07T13:24:51;17.60;99.90
33831;DHT22;20137;48.834;8.732;2023-08-07T13:27:17;17.80;99.90
33831;DHT22;20137;48.834;8.732;2023-08-07T13:29:43;18.00;99.90
33831;DHT22;20137;48.834;8.732;2023-08-07T13:32:09;18.00;99.90
33831;DHT22;20137;48.834;8.732;2023-08-07T13:34:35;18.00;99.90
33831;DHT22;20137;48.834;8.732;2023-08-07T13:37:02;18.20;99.90
33831;DHT22;20137;48.834;8.732;2023-08-07T13:39:27;18.00;99.90
33831;DHT22;20137;48.834;8.732;2023-08-07T13:41:53;17.90;99.90
33831;DHT22;20137;48.834;8.732;2023-08-07T13:44:19;17.50;99.90
33831;DHT22;20137;48.834;8.732;2023-08-07T13:46:45;17.70;99.90
33831;DHT22;20137;48.834;8.732;2023-08-07T13:49:13;17.80;99.90
33831;DHT22;20137;48.834;8.732;2023-08-07T13:51:40;17.60;99.90
33831;DHT22;20137;48.834;8.732;2023-08-07T13:54:05;17.50;99.90
33831;DHT22;20137;48.834;8.732;2023-08-07T13:56:31;17.50;99.90
33831;DHT22;20137;48.834;8.732;2023-08-07T13:58:57;17.10;99.90
33831;DHT22;20137;48.834;8.732;2023-08-07T14:01:22;17.00;99.90
33831;DHT22;20137;48.834;8.732;2023-08-07T14:03:48;16.80;99.90
33831;DHT22;20137;48.834;8.732;2023-08-07T14:06:13;16.70;99.90
33831;DHT22;20137;48.834;8.732;2023-08-07T14:08:39;16.50;99.90
33831;DHT22;20137;48.834;8.732;2023-08-07T14:11:05;16.50;99.90
33831;DHT22;20137;48.834;8.732;2023-08-07T14:13:31;16.40;99.90
33831;DHT22;20137;48.834;8.732;2023-08-07T14:15:57;16.50;99.90
33831;DHT22;20137;48.834;8.732;2023-08-07T14:18:22;16.90;99.90
33831;DHT22;20137;48.834;8.732;2023-08-07T14:20:48;17.20;99.90
33831;DHT22;20137;48.834;8.732;2023-08-07T14:23:14;17.30;99.90
33831;DHT22;20137;48.834;8.732;2023-08-07T14:25:39;17.30;99.90
33831;DHT22;20137;48.834;8.732;2023-08-07T14:28:05;17.30;99.90
33831;DHT22;20137;48.834;8.732;2023-08-07T14:30:33;17.50;99.90
33831;DHT22;20137;48.834;8.732;2023-08-07T14:32:58;17.70;99.90
33831;DHT22;20137;48.834;8.732;2023-08-07T14:35:24;17.40;99.90
33831;DHT22;20137;48.834;8.732;2023-08-07T14:37:50;17.10;99.90
33831;DHT22;20137;48.834;8.732;2023-08-07T14:40:16;16.80;99.90
33831;DHT22;20137;48.834;8.732;2023-08-07T14:42:41;16.50;99.90
33831;DHT22;20137;48.834;8.732;2023-08-07T14:45:07;16.40;99.90
33831;DHT22;20137;48.834;8.732;2023-08-07T14:47:36;16.30;99.90
33831;DHT22;20137;48.834;8.732;2023-08-07T14:50:02;16.40;99.90
33831;DHT22;20137;48.834;8.732;2023-08-07T14:52:28;16.70;99.90
33831;DHT22;20137;48.834;8.732;2023-08-07T14:54:53;17.00;99.90
33831;DHT22;20137;48.834;8.732;2023-08-07T14:57:22;17.10;99.90
33831;DHT22;20137;48.834;8.732;2023-08-07T14:59:48;16.80;99.90
33831;DHT22;20137;48.834;8.732;2023-08-07T15:02:14;16.70;99.90
33831;DHT22;20137;48.834;8.732;2023-08-07T15:04:39;16.40;99.90
33831;DHT22;20137;48.834;8.732;2023-08-07T15:07:05;16.20;99.90
33831;DHT22;20137;48.834;8.732;2023-08-07T15:09:31;16.10;99.90
33831;DHT22;20137;48.834;8.732;2023-08-07T15:11:56;16.10;99.90
33831;DHT22;20137;48.834;8.732;2023-08-07T15:14:22;16.10;99.90
33831;DHT22;20137;48.834;8.732;2023-08-07T15:16:48;16.20;99.90
33831;DHT22;20137;48.834;8.732;2023-08-07T15:19:14;16.50;99.90
33831;DHT22;20137;48.834;8.732;2023-08-07T15:21:39;16.60;99.90
33831;DHT22;20137;48.834;8.732;2023-08-07T15:24:06;16.60;99.90
33831;DHT22;20137;48.834;8.732;2023-08-07T15:26:31;16.80;99.90
33831;DHT22;20137;48.834;8.732;2023-08-07T15:28:57;16.90;99.90
33831;DHT22;20137;48.834;8.732;2023-08-07T15:31:23;17.00;99.90
33831;DHT22;20137;48.834;8.732;2023-08-07T15:33:48;16.90;99.90
33831;DHT22;20137;48.834;8.732;2023-08-07T15:36:16;16.80;99.90
33831;DHT22;20137;48.834;8.732;2023-08-07T15:38:42;16.90;99.90